METAR Data
IDs: Format: Raw Decoded Include TAF

Data at: 0850 UTC 26 Jan 2020

METAR for:KNYL (Yuma (MCAS), AZ, US)
Text:KNYL 260757Z AUTO 05004KT 10SM CLR 13/03 A3007 RMK AO2 SLP182 T01280028 $
Temperature: 12.8°C ( 55°F)
Dewpoint: 2.8°C ( 37°F) [RH = 51%]
Pressure (altimeter):30.07 inches Hg (1018.4 mb) [Sea level pressure: 1018.2 mb]
Winds:from the NE (50 degrees) at 5 MPH (4 knots; 2.1 m/s)
Visibility:10 or more sm (16+ km)
Ceiling:at least 12,000 feet AGL
Clouds:sky clear below 12,000 feet AGL
QC Flag:automated observation with no human augmentation; SOME DATA ABOVE MAY BE INACCURATE!!!"$" is an indication the sensor requires maintenance.